createdAt,value
2023-01-08T00:00:52.649Z,88161.00
2023-01-08T00:01:52.499Z,88167.00
2023-01-08T00:02:52.506Z,88163.00
2023-01-08T00:03:52.581Z,88173.00
2023-01-08T00:04:52.387Z,88165.00
2023-01-08T00:05:52.351Z,88159.00
2023-01-08T00:06:52.333Z,88163.00
2023-01-08T00:07:52.257Z,88153.00
2023-01-08T00:08:52.247Z,88159.00
2023-01-08T00:09:52.192Z,88153.00
2023-01-08T00:10:52.148Z,88157.00
2023-01-08T00:11:52.118Z,88147.00
2023-01-08T00:12:52.055Z,88151.00
2023-01-08T00:13:52.088Z,88144.00
2023-01-08T00:14:51.993Z,88136.00
2023-01-08T00:15:51.922Z,88136.00
2023-01-08T00:16:52.012Z,88138.00
2023-01-08T00:17:51.874Z,88134.00
2023-01-08T00:18:51.838Z,88134.00
2023-01-08T00:19:51.786Z,88132.00
2023-01-08T00:20:51.757Z,88134.00
2023-01-08T00:21:51.723Z,88130.00
2023-01-08T00:22:51.668Z,88132.00
2023-01-08T00:23:51.634Z,88136.00
2023-01-08T00:24:51.593Z,88132.00
2023-01-08T00:25:51.564Z,88139.00
2023-01-08T00:26:51.521Z,88130.00
2023-01-08T00:27:51.499Z,88132.00
2023-01-08T00:28:51.465Z,88130.00
2023-01-08T00:29:51.527Z,88134.00
2023-01-08T00:30:51.469Z,88136.00
2023-01-08T00:31:51.348Z,88130.00
2023-01-08T00:32:51.333Z,88128.00
2023-01-08T00:33:51.265Z,88128.00
2023-01-08T00:34:51.220Z,88136.00
2023-01-08T00:35:51.181Z,88126.00
2023-01-08T00:36:51.140Z,88118.00
2023-01-08T00:37:51.134Z,88122.00
2023-01-08T00:38:51.074Z,88120.00
2023-01-08T00:39:51.039Z,88122.00
2023-01-08T00:40:50.996Z,88128.00
2023-01-08T00:41:50.947Z,88130.00
2023-01-08T00:42:50.967Z,88126.00
2023-01-08T00:43:50.894Z,88122.00
2023-01-08T00:44:50.847Z,88138.00
2023-01-08T00:45:50.949Z,88124.00
2023-01-08T00:46:50.774Z,88124.00
2023-01-08T00:47:50.747Z,88130.00
2023-01-08T00:48:50.684Z,88122.00
2023-01-08T00:49:50.673Z,88114.00
2023-01-08T00:50:50.635Z,88118.00
2023-01-08T00:51:50.582Z,88114.00
2023-01-08T00:52:50.551Z,88116.00
2023-01-08T00:53:50.514Z,88116.00
2023-01-08T00:54:50.482Z,88124.00
2023-01-08T00:55:50.445Z,88130.00
2023-01-08T00:56:50.391Z,88120.00
2023-01-08T00:57:50.371Z,88122.00
2023-01-08T00:58:50.311Z,88122.00
2023-01-08T00:59:50.274Z,88120.00
2023-01-08T01:00:50.255Z,88128.00
2023-01-08T01:01:50.491Z,88118.00
2023-01-08T01:02:50.162Z,88134.00
2023-01-08T01:03:50.210Z,88114.00
2023-01-08T01:04:50.066Z,88126.00
2023-01-08T01:05:50.051Z,88134.00
2023-01-08T01:06:49.985Z,88116.00
2023-01-08T01:07:49.950Z,88116.00
2023-01-08T01:08:49.910Z,88122.00
2023-01-08T01:09:49.864Z,88118.00
2023-01-08T01:10:49.832Z,88108.00
2023-01-08T01:11:49.804Z,88114.00
2023-01-08T01:12:49.776Z,88108.00
2023-01-08T01:13:49.697Z,88106.00
2023-01-08T01:14:49.665Z,88110.00
2023-01-08T01:15:49.630Z,88106.00
2023-01-08T01:16:49.630Z,88106.00
2023-01-08T01:17:49.698Z,88106.00
2023-01-08T01:18:49.557Z,88106.00
2023-01-08T01:19:49.484Z,88114.00
2023-01-08T01:20:49.428Z,88106.00
2023-01-08T01:21:49.427Z,88112.00
2023-01-08T01:22:49.365Z,88106.00
2023-01-08T01:23:49.348Z,88104.00
2023-01-08T01:24:49.293Z,88118.00
2023-01-08T01:25:49.244Z,88110.00
2023-01-08T01:26:49.210Z,88116.00
2023-01-08T01:27:49.173Z,88120.00
2023-01-08T01:28:49.183Z,88112.00
2023-01-08T01:29:49.115Z,88122.00
2023-01-08T01:30:49.115Z,88114.00
2023-01-08T01:31:49.029Z,88122.00
2023-01-08T01:32:48.996Z,88132.00
2023-01-08T01:33:49.055Z,88132.00
2023-01-08T01:34:48.910Z,88120.00
2023-01-08T01:35:48.877Z,88114.00
2023-01-08T01:36:48.853Z,88136.00
2023-01-08T01:37:48.820Z,88122.00
2023-01-08T01:38:48.777Z,88124.00
2023-01-08T01:39:48.741Z,88122.00
2023-01-08T01:40:48.700Z,88106.00
2023-01-08T01:41:48.645Z,88112.00
2023-01-08T01:42:48.642Z,88122.00
2023-01-08T01:43:48.580Z,88116.00
2023-01-08T01:44:48.544Z,88126.00
2023-01-08T01:45:48.544Z,88112.00
2023-01-08T01:46:48.474Z,88114.00
2023-01-08T01:47:48.423Z,88114.00
2023-01-08T01:48:48.403Z,88122.00
2023-01-08T01:49:48.464Z,88110.00
2023-01-08T01:50:48.339Z,88116.00
2023-01-08T01:51:48.293Z,88112.00
2023-01-08T01:52:48.253Z,88118.00
2023-01-08T01:53:48.233Z,88114.00
2023-01-08T01:54:48.178Z,88118.00
2023-01-08T01:55:48.153Z,88120.00
2023-01-08T01:56:48.106Z,88114.00
2023-01-08T01:57:48.068Z,88114.00
2023-01-08T01:58:48.051Z,88108.00
2023-01-08T01:59:48.022Z,88116.00
2023-01-08T02:00:47.975Z,88118.00
2023-01-08T02:01:48.061Z,88126.00
2023-01-08T02:02:47.893Z,88126.00
2023-01-08T02:03:47.923Z,88136.00
2023-01-08T02:04:47.814Z,88118.00
2023-01-08T02:05:47.855Z,88128.00
2023-01-08T02:06:47.736Z,88122.00
2023-01-08T02:07:47.671Z,88106.00
2023-01-08T02:08:47.661Z,88112.00
2023-01-08T02:09:47.622Z,88106.00
2023-01-08T02:10:47.569Z,88112.00
2023-01-08T02:11:47.531Z,88110.00
2023-01-08T02:12:47.487Z,88108.00
2023-01-08T02:13:47.453Z,88112.00
2023-01-08T02:14:47.417Z,88118.00
2023-01-08T02:15:47.367Z,88108.00
2023-01-08T02:16:47.397Z,88120.00
2023-01-08T02:17:47.311Z,88102.00
2023-01-08T02:18:47.278Z,88114.00
2023-01-08T02:19:47.237Z,88114.00
2023-01-08T02:20:47.183Z,88112.00
2023-01-08T02:21:47.239Z,88110.00
2023-01-08T02:22:47.124Z,88108.00
2023-01-08T02:23:47.073Z,88112.00
2023-01-08T02:24:47.032Z,88112.00
2023-01-08T02:25:46.998Z,88108.00
2023-01-08T02:26:46.967Z,88120.00
2023-01-08T02:27:46.914Z,88114.00
2023-01-08T02:28:46.885Z,88122.00
2023-01-08T02:29:46.846Z,88102.00
2023-01-08T02:30:46.860Z,88106.00
2023-01-08T02:31:46.747Z,88096.00
2023-01-08T02:32:46.724Z,88102.00
2023-01-08T02:33:46.673Z,88102.00
2023-01-08T02:34:46.700Z,88092.00
2023-01-08T02:35:46.597Z,88100.00
2023-01-08T02:36:46.561Z,88100.00
2023-01-08T02:37:46.629Z,88096.00
2023-01-08T02:38:46.482Z,88098.00
2023-01-08T02:39:46.437Z,88098.00
2023-01-08T02:40:46.398Z,88100.00
2023-01-08T02:41:46.360Z,88098.00
2023-01-08T02:42:46.325Z,88094.00
2023-01-08T02:43:46.299Z,88098.00
2023-01-08T02:44:46.267Z,88091.00
2023-01-08T02:45:46.227Z,88092.00
2023-01-08T02:46:46.176Z,88094.00
2023-01-08T02:47:46.129Z,88089.00
2023-01-08T02:48:46.092Z,88087.00
2023-01-08T02:49:46.056Z,88096.00
2023-01-08T02:50:46.014Z,88089.00
2023-01-08T02:51:45.989Z,88092.00
2023-01-08T02:52:45.959Z,88085.00
2023-01-08T02:53:45.986Z,88091.00
2023-01-08T02:54:45.873Z,88087.00
2023-01-08T02:55:45.836Z,88091.00
2023-01-08T02:56:45.795Z,88085.00
2023-01-08T02:57:45.755Z,88100.00
2023-01-08T02:58:45.722Z,88087.00
2023-01-08T02:59:45.710Z,88089.00
2023-01-08T03:00:45.649Z,88087.00
2023-01-08T03:01:45.836Z,88094.00
2023-01-08T03:02:45.555Z,88083.00
2023-01-08T03:03:45.596Z,88092.00
2023-01-08T03:04:45.514Z,88075.00
2023-01-08T03:05:45.480Z,88083.00
2023-01-08T03:06:45.424Z,88083.00
2023-01-08T03:07:45.372Z,88081.00
2023-01-08T03:08:45.341Z,88087.00
2023-01-08T03:09:45.438Z,88079.00
2023-01-08T03:10:45.272Z,88077.00
2023-01-08T03:11:45.222Z,88075.00
2023-01-08T03:12:45.184Z,88075.00
2023-01-08T03:13:45.154Z,88081.00
2023-01-08T03:14:45.109Z,88073.00
2023-01-08T03:15:45.072Z,88075.00
2023-01-08T03:16:45.084Z,88075.00
2023-01-08T03:17:45.000Z,88067.00
2023-01-08T03:18:44.949Z,88069.00
2023-01-08T03:19:44.893Z,88069.00
2023-01-08T03:20:44.864Z,88073.00
2023-01-08T03:21:44.799Z,88067.00
2023-01-08T03:22:44.762Z,88063.00
2023-01-08T03:23:44.714Z,88071.00
2023-01-08T03:24:44.658Z,88069.00
2023-01-08T03:25:44.705Z,88065.00
2023-01-08T03:26:44.567Z,88063.00
2023-01-08T03:27:44.535Z,88061.00
2023-01-08T03:28:44.504Z,88059.00
2023-01-08T03:29:44.453Z,88059.00
2023-01-08T03:30:44.434Z,88053.00
2023-01-08T03:31:44.362Z,88047.00
2023-01-08T03:32:44.320Z,88051.00
2023-01-08T03:33:44.262Z,88051.00
2023-01-08T03:34:44.229Z,88051.00
2023-01-08T03:35:44.202Z,88053.00
2023-01-08T03:36:44.161Z,88051.00
2023-01-08T03:37:44.129Z,88047.00
2023-01-08T03:38:44.091Z,88053.00
2023-01-08T03:39:44.044Z,88047.00
2023-01-08T03:40:44.016Z,88045.00
2023-01-08T03:41:44.057Z,88047.00
2023-01-08T03:42:43.928Z,88044.00
2023-01-08T03:43:43.898Z,88037.00
2023-01-08T03:44:43.874Z,88042.00
2023-01-08T03:45:43.874Z,88037.00
2023-01-08T03:46:43.803Z,88036.00
2023-01-08T03:47:43.763Z,88034.00
2023-01-08T03:48:43.716Z,88034.00
2023-01-08T03:49:43.688Z,88036.00
2023-01-08T03:50:43.677Z,88034.00
2023-01-08T03:51:43.597Z,88039.00
2023-01-08T03:52:43.559Z,88034.00
2023-01-08T03:53:43.525Z,88028.00
2023-01-08T03:54:43.481Z,88022.00
2023-01-08T03:55:43.461Z,88030.00
2023-01-08T03:56:43.447Z,88032.00
2023-01-08T03:57:43.467Z,88026.00
2023-01-08T03:58:43.361Z,88024.00
2023-01-08T03:59:43.310Z,88018.00
2023-01-08T04:00:43.283Z,88022.00
2023-01-08T04:01:43.380Z,88018.00
2023-01-08T04:02:43.278Z,88018.00
2023-01-08T04:03:43.160Z,88012.00
2023-01-08T04:04:43.184Z,88018.00
2023-01-08T04:05:43.097Z,88014.00
2023-01-08T04:06:43.054Z,88014.00
2023-01-08T04:07:43.021Z,88008.00
2023-01-08T04:08:43.026Z,88006.00
2023-01-08T04:09:42.960Z,88004.00
2023-01-08T04:10:42.917Z,87996.00
2023-01-08T04:11:42.881Z,87990.00
2023-01-08T04:12:42.833Z,87994.00
2023-01-08T04:13:42.893Z,87990.00
2023-01-08T04:14:42.762Z,87992.00
2023-01-08T04:15:42.770Z,87989.00
2023-01-08T04:16:42.727Z,87994.00
2023-01-08T04:17:42.650Z,87996.00
2023-01-08T04:18:42.610Z,87987.00
2023-01-08T04:19:42.573Z,87983.00
2023-01-08T04:20:42.541Z,87987.00
2023-01-08T04:21:42.535Z,87972.00
2023-01-08T04:22:42.488Z,87985.00
2023-01-08T04:23:42.448Z,87985.00
2023-01-08T04:24:42.409Z,87983.00
2023-01-08T04:25:42.369Z,87987.00
2023-01-08T04:26:42.348Z,87985.00
2023-01-08T04:27:42.296Z,87976.00
2023-01-08T04:28:42.280Z,87974.00
2023-01-08T04:29:42.239Z,87974.00
2023-01-08T04:30:42.265Z,87985.00
2023-01-08T04:31:42.170Z,87990.00
2023-01-08T04:32:42.118Z,87990.00
2023-01-08T04:33:42.093Z,87994.00
2023-01-08T04:34:42.036Z,87989.00
2023-01-08T04:35:42.002Z,87987.00
2023-01-08T04:36:41.977Z,87996.00
2023-01-08T04:37:41.955Z,87994.00
2023-01-08T04:38:41.883Z,87992.00
2023-01-08T04:39:41.830Z,87990.00
2023-01-08T04:40:41.800Z,87998.00
2023-01-08T04:41:41.814Z,88000.00
2023-01-08T04:42:41.731Z,87996.00
2023-01-08T04:43:41.708Z,87994.00
2023-01-08T04:44:41.660Z,87996.00
2023-01-08T04:45:41.708Z,87996.00
2023-01-08T04:46:41.631Z,87996.00
2023-01-08T04:47:41.560Z,87996.00
2023-01-08T04:48:41.524Z,87998.00
2023-01-08T04:49:41.491Z,88002.00
2023-01-08T04:50:41.426Z,88010.00
2023-01-08T04:51:41.406Z,88014.00
2023-01-08T04:52:41.365Z,88012.00
2023-01-08T04:53:41.350Z,88018.00
2023-01-08T04:54:41.296Z,88016.00
2023-01-08T04:55:41.264Z,88014.00
2023-01-08T04:56:41.222Z,88016.00
2023-01-08T04:57:41.202Z,88018.00
2023-01-08T04:58:41.157Z,88022.00
2023-01-08T04:59:41.124Z,88012.00
2023-01-08T05:00:41.088Z,88012.00
2023-01-08T05:01:41.131Z,88018.00
2023-01-08T05:02:41.192Z,88020.00
2023-01-08T05:03:40.986Z,88022.00
2023-01-08T05:04:40.949Z,88024.00
2023-01-08T05:05:40.922Z,88024.00
2023-01-08T05:06:40.875Z,88026.00
2023-01-08T05:07:40.853Z,88022.00
2023-01-08T05:08:40.819Z,88022.00
2023-01-08T05:09:40.787Z,88024.00
2023-01-08T05:10:40.744Z,88018.00
2023-01-08T05:11:40.719Z,88018.00
2023-01-08T05:12:40.678Z,88022.00
2023-01-08T05:13:40.666Z,88018.00
2023-01-08T05:14:40.609Z,88020.00
2023-01-08T05:15:40.586Z,88024.00
2023-01-08T05:16:40.526Z,88018.00
2023-01-08T05:17:40.608Z,88022.00
2023-01-08T05:18:40.464Z,88020.00
2023-01-08T05:19:40.444Z,88016.00
2023-01-08T05:20:40.375Z,88008.00
2023-01-08T05:21:40.358Z,88008.00
2023-01-08T05:22:40.328Z,88014.00
2023-01-08T05:23:40.304Z,88012.00
2023-01-08T05:24:40.262Z,88004.00
2023-01-08T05:25:40.227Z,88006.00
2023-01-08T05:26:40.186Z,87998.00
2023-01-08T05:27:40.161Z,87994.00
2023-01-08T05:28:40.120Z,87989.00
2023-01-08T05:29:40.099Z,87992.00
2023-01-08T05:30:40.093Z,87994.00
2023-01-08T05:31:40.035Z,87996.00
2023-01-08T05:32:40.008Z,87990.00
2023-01-08T05:33:40.077Z,87983.00
2023-01-08T05:34:39.926Z,87985.00
2023-01-08T05:35:39.886Z,87989.00
2023-01-08T05:36:39.844Z,87998.00
2023-01-08T05:37:39.830Z,88000.00
2023-01-08T05:38:39.814Z,87996.00
2023-01-08T05:39:39.758Z,87985.00
2023-01-08T05:40:39.718Z,87974.00
2023-01-08T05:41:39.689Z,87970.00
2023-01-08T05:42:39.643Z,87962.00
2023-01-08T05:43:39.631Z,87964.00
2023-01-08T05:44:39.587Z,87974.00
2023-01-08T05:45:39.535Z,87974.00
2023-01-08T05:46:39.519Z,87964.00
2023-01-08T05:47:39.464Z,87958.00
2023-01-08T05:48:39.444Z,87958.00
2023-01-08T05:49:39.461Z,87954.00
2023-01-08T05:50:39.341Z,87946.00
2023-01-08T05:51:39.310Z,87944.00
2023-01-08T05:52:39.277Z,87944.00
2023-01-08T05:53:39.241Z,87940.00
2023-01-08T05:54:39.198Z,87946.00
2023-01-08T05:55:39.171Z,87942.00
2023-01-08T05:56:39.131Z,87948.00
2023-01-08T05:57:39.095Z,87946.00
2023-01-08T05:58:40.036Z,87936.00
2023-01-08T05:59:39.012Z,87944.00
2023-01-08T06:00:39.004Z,87942.00
2023-01-08T06:01:38.981Z,87936.00
2023-01-08T06:02:38.937Z,87942.00
2023-01-08T06:03:38.874Z,87948.00
2023-01-08T06:04:38.905Z,87950.00
2023-01-08T06:05:38.877Z,87948.00
2023-01-08T06:06:38.754Z,87948.00
2023-01-08T06:07:38.733Z,87942.00
2023-01-08T06:08:38.697Z,87940.00
2023-01-08T06:09:38.645Z,87936.00
2023-01-08T06:10:38.606Z,87932.00
2023-01-08T06:11:38.572Z,87940.00
2023-01-08T06:12:38.514Z,87936.00
2023-01-08T06:13:38.479Z,87938.00
2023-01-08T06:14:38.444Z,87934.00
2023-01-08T06:15:38.413Z,87932.00
2023-01-08T06:16:38.355Z,87932.00
2023-01-08T06:17:38.318Z,87932.00
2023-01-08T06:18:38.271Z,87934.00
2023-01-08T06:19:38.219Z,87928.00
2023-01-08T06:20:38.175Z,87930.00
2023-01-08T06:21:38.223Z,87936.00
2023-01-08T06:22:38.107Z,87936.00
2023-01-08T06:23:38.077Z,87934.00
2023-01-08T06:24:38.014Z,87934.00
2023-01-08T06:25:37.975Z,87936.00
2023-01-08T06:26:37.936Z,87940.00
2023-01-08T06:27:40.435Z,87946.00
2023-01-08T06:28:38.105Z,87940.00
2023-01-08T06:29:38.042Z,87942.00
2023-01-08T06:30:37.991Z,87948.00
2023-01-08T06:31:38.013Z,87946.00
2023-01-08T06:32:37.900Z,87948.00
2023-01-08T06:33:37.848Z,87954.00
2023-01-08T06:34:37.817Z,87948.00
2023-01-08T06:35:37.825Z,87942.00
2023-01-08T06:36:37.843Z,87934.00
2023-01-08T06:37:37.924Z,87938.00
2023-01-08T06:38:37.858Z,87938.00
2023-01-08T06:39:37.903Z,87938.00
2023-01-08T06:40:37.902Z,87938.00
2023-01-08T06:41:37.900Z,87950.00
2023-01-08T06:42:37.929Z,87948.00
2023-01-08T06:43:37.942Z,87936.00
2023-01-08T06:44:37.962Z,87928.00
2023-01-08T06:45:37.978Z,87936.00
2023-01-08T06:46:38.020Z,87940.00
2023-01-08T06:47:38.007Z,87926.00
2023-01-08T06:48:38.048Z,87934.00
2023-01-08T06:49:38.037Z,87928.00
2023-01-08T06:50:38.057Z,87932.00
2023-01-08T06:51:38.062Z,87936.00
2023-01-08T06:52:38.073Z,87940.00
2023-01-08T06:53:38.193Z,87938.00
2023-01-08T06:54:38.130Z,87934.00
2023-01-08T06:55:38.165Z,87934.00
2023-01-08T06:56:52.591Z,87938.00
2023-01-08T06:57:39.132Z,87934.00
2023-01-08T06:58:38.074Z,87932.00
2023-01-08T06:59:38.047Z,87938.00
2023-01-08T07:00:38.029Z,87932.00
2023-01-08T07:01:38.025Z,87938.00
2023-01-08T07:02:38.129Z,87940.00
2023-01-08T07:03:37.972Z,87936.00
2023-01-08T07:04:37.885Z,87944.00
2023-01-08T07:05:37.845Z,87938.00
2023-01-08T07:06:37.781Z,87938.00
2023-01-08T07:07:37.717Z,87934.00
2023-01-08T07:08:37.693Z,87938.00
2023-01-08T07:09:37.737Z,87936.00
2023-01-08T07:10:37.617Z,87946.00
2023-01-08T07:11:37.564Z,87921.00
2023-01-08T07:12:37.559Z,87934.00
2023-01-08T07:13:37.476Z,87930.00
2023-01-08T07:14:37.458Z,87932.00
2023-01-08T07:15:37.500Z,87928.00
2023-01-08T07:16:37.356Z,87934.00
2023-01-08T07:17:37.310Z,87938.00
2023-01-08T07:18:37.292Z,87930.00
2023-01-08T07:19:37.279Z,87932.00
2023-01-08T07:20:37.207Z,87928.00
2023-01-08T07:21:37.175Z,87930.00
2023-01-08T07:22:37.159Z,87922.00
2023-01-08T07:23:37.119Z,87924.00
2023-01-08T07:24:37.050Z,87922.00
2023-01-08T07:25:37.108Z,87913.00
2023-01-08T07:26:36.987Z,87928.00
2023-01-08T07:27:36.965Z,87924.00
2023-01-08T07:28:36.922Z,87928.00
2023-01-08T07:29:36.917Z,87926.00
2023-01-08T07:30:36.867Z,87921.00
2023-01-08T07:31:36.902Z,87907.00
2023-01-08T07:32:36.815Z,87911.00
2023-01-08T07:33:36.785Z,87911.00
2023-01-08T07:34:36.748Z,87915.00
2023-01-08T07:35:36.743Z,87913.00
2023-01-08T07:36:36.679Z,87915.00
2023-01-08T07:37:36.648Z,87913.00
2023-01-08T07:38:36.613Z,87911.00
2023-01-08T07:39:36.573Z,87911.00
2023-01-08T07:40:39.147Z,87907.00
2023-01-08T07:41:36.615Z,87907.00
2023-01-08T07:42:36.489Z,87905.00
2023-01-08T07:43:36.438Z,87903.00
2023-01-08T07:44:36.413Z,87903.00
2023-01-08T07:45:36.377Z,87903.00
2023-01-08T07:46:36.414Z,87913.00
2023-01-08T07:47:36.304Z,87917.00
2023-01-08T07:48:36.268Z,87913.00
2023-01-08T07:49:36.213Z,87919.00
2023-01-08T07:50:36.209Z,87913.00
2023-01-08T07:51:36.151Z,87915.00
2023-01-08T07:52:36.164Z,87911.00
2023-01-08T07:53:36.093Z,87922.00
2023-01-08T07:54:36.050Z,87915.00
2023-01-08T07:55:36.015Z,87911.00
2023-01-08T07:56:35.984Z,87917.00
2023-01-08T07:57:36.026Z,87919.00
2023-01-08T07:58:35.935Z,87921.00
2023-01-08T07:59:35.870Z,87919.00
2023-01-08T08:00:35.853Z,87919.00
2023-01-08T08:01:35.930Z,87915.00
2023-01-08T08:02:35.964Z,87915.00
2023-01-08T08:03:35.768Z,87921.00
2023-01-08T08:04:35.690Z,87921.00
2023-01-08T08:05:35.653Z,87921.00
2023-01-08T08:06:35.605Z,87907.00
2023-01-08T08:07:35.564Z,87913.00
2023-01-08T08:08:35.560Z,87909.00
2023-01-08T08:09:35.555Z,87913.00
2023-01-08T08:10:35.496Z,87909.00
2023-01-08T08:11:35.428Z,87922.00
2023-01-08T08:12:35.390Z,87924.00
2023-01-08T08:13:35.435Z,87911.00
2023-01-08T08:14:35.318Z,87915.00
2023-01-08T08:15:35.259Z,87909.00
2023-01-08T08:16:35.322Z,87899.00
2023-01-08T08:17:35.185Z,87905.00
2023-01-08T08:18:35.173Z,87897.00
2023-01-08T08:19:35.129Z,87905.00
2023-01-08T08:20:35.101Z,87899.00
2023-01-08T08:21:35.054Z,87899.00
2023-01-08T08:22:35.011Z,87907.00
2023-01-08T08:23:36.706Z,87911.00
2023-01-08T08:24:34.933Z,87913.00
2023-01-08T08:25:34.909Z,87919.00
2023-01-08T08:26:34.892Z,87911.00
2023-01-08T08:27:34.839Z,87905.00
2023-01-08T08:28:34.803Z,87909.00
2023-01-08T08:29:34.851Z,87913.00
2023-01-08T08:30:34.739Z,87909.00
2023-01-08T08:31:34.744Z,87915.00
2023-01-08T08:32:34.666Z,87915.00
2023-01-08T08:33:34.666Z,87915.00
2023-01-08T08:34:34.594Z,87915.00
2023-01-08T08:35:34.555Z,87917.00
2023-01-08T08:36:34.534Z,87913.00
2023-01-08T08:37:34.504Z,87913.00
2023-01-08T08:38:34.452Z,87915.00
2023-01-08T08:39:34.416Z,87915.00
2023-01-08T08:40:34.385Z,87921.00
2023-01-08T08:41:34.372Z,87930.00
2023-01-08T08:42:34.309Z,87936.00
2023-01-08T08:43:34.268Z,87938.00
2023-01-08T08:44:34.235Z,87938.00
2023-01-08T08:45:34.294Z,87938.00
2023-01-08T08:46:34.248Z,87932.00
2023-01-08T08:47:34.131Z,87926.00
2023-01-08T08:48:34.097Z,87936.00
2023-01-08T08:49:34.046Z,87934.00
2023-01-08T08:50:34.014Z,87936.00
2023-01-08T08:51:33.987Z,87934.00
2023-01-08T08:52:33.937Z,87932.00
2023-01-08T08:53:33.889Z,87930.00
2023-01-08T08:54:33.900Z,87921.00
2023-01-08T08:55:33.823Z,87921.00
2023-01-08T08:56:33.825Z,87926.00
2023-01-08T08:57:33.730Z,87928.00
2023-01-08T08:58:33.703Z,87922.00
2023-01-08T08:59:33.653Z,87922.00
2023-01-08T09:00:33.626Z,87930.00
2023-01-08T09:01:33.755Z,87921.00
2023-01-08T09:02:33.760Z,87932.00
2023-01-08T09:03:33.466Z,87932.00
2023-01-08T09:04:33.452Z,87932.00
2023-01-08T09:05:33.399Z,87936.00
2023-01-08T09:06:33.356Z,87924.00
2023-01-08T09:07:33.320Z,87921.00
2023-01-08T09:08:33.272Z,87921.00
2023-01-08T09:09:33.238Z,87922.00
2023-01-08T09:10:33.205Z,87921.00
2023-01-08T09:11:33.148Z,87915.00
2023-01-08T09:12:33.115Z,87915.00
2023-01-08T09:13:33.073Z,87922.00
2023-01-08T09:14:33.035Z,87921.00
2023-01-08T09:15:32.992Z,87924.00
2023-01-08T09:16:33.069Z,87921.00
2023-01-08T09:17:33.014Z,87926.00
2023-01-08T09:18:32.882Z,87924.00
2023-01-08T09:19:32.842Z,87922.00
2023-01-08T09:20:32.815Z,87924.00
2023-01-08T09:21:32.760Z,87924.00
2023-01-08T09:22:32.743Z,87921.00
2023-01-08T09:23:32.700Z,87919.00
2023-01-08T09:24:32.642Z,87919.00
2023-01-08T09:25:32.597Z,87922.00
2023-01-08T09:26:32.555Z,87922.00
2023-01-08T09:27:32.558Z,87921.00
2023-01-08T09:28:32.478Z,87924.00
2023-01-08T09:29:32.421Z,87913.00
2023-01-08T09:30:32.395Z,87913.00
2023-01-08T09:31:32.425Z,87917.00
2023-01-08T09:32:32.304Z,87911.00
2023-01-08T09:33:32.334Z,87915.00
2023-01-08T09:34:32.209Z,87917.00
2023-01-08T09:35:32.179Z,87915.00
2023-01-08T09:36:32.147Z,87913.00
2023-01-08T09:37:32.090Z,87909.00
2023-01-08T09:38:32.064Z,87911.00
2023-01-08T09:39:31.999Z,87915.00
2023-01-08T09:40:31.944Z,87915.00
2023-01-08T09:41:31.901Z,87907.00
2023-01-08T09:42:31.892Z,87909.00
2023-01-08T09:43:31.816Z,87913.00
2023-01-08T09:44:31.788Z,87903.00
2023-01-08T09:45:31.736Z,87907.00
2023-01-08T09:46:31.756Z,87911.00
2023-01-08T09:47:31.657Z,87915.00
2023-01-08T09:48:31.608Z,87911.00
2023-01-08T09:49:31.645Z,87911.00
2023-01-08T09:50:31.551Z,87913.00
2023-01-08T09:51:31.488Z,87911.00
2023-01-08T09:52:31.493Z,87897.00
2023-01-08T09:53:31.436Z,87905.00
2023-01-08T09:54:31.396Z,87899.00
2023-01-08T09:55:31.387Z,87897.00
2023-01-08T09:56:31.313Z,87899.00
2023-01-08T09:57:31.272Z,87895.00
2023-01-08T09:58:31.246Z,87897.00
2023-01-08T09:59:31.193Z,87901.00
2023-01-08T10:00:31.183Z,87903.00
2023-01-08T10:01:31.217Z,87901.00
2023-01-08T10:02:31.188Z,87899.00
2023-01-08T10:03:31.039Z,87893.00
2023-01-08T10:04:30.994Z,87883.00
2023-01-08T10:05:31.051Z,87887.00
2023-01-08T10:06:30.913Z,87891.00
2023-01-08T10:07:30.893Z,87891.00
2023-01-08T10:08:30.877Z,87895.00
2023-01-08T10:09:30.802Z,87897.00
2023-01-08T10:10:30.764Z,87899.00
2023-01-08T10:11:30.728Z,87897.00
2023-01-08T10:12:30.690Z,87901.00
2023-01-08T10:13:30.666Z,87903.00
2023-01-08T10:14:30.587Z,87897.00
2023-01-08T10:15:30.539Z,87889.00
2023-01-08T10:16:30.616Z,87889.00
2023-01-08T10:17:30.460Z,87881.00
2023-01-08T10:18:30.431Z,87889.00
2023-01-08T10:19:30.374Z,87883.00
2023-01-08T10:20:30.337Z,87887.00
2023-01-08T10:21:30.375Z,87883.00
2023-01-08T10:22:30.256Z,87877.00
2023-01-08T10:23:30.213Z,87883.00
2023-01-08T10:24:30.175Z,87883.00
2023-01-08T10:25:30.648Z,87887.00
2023-01-08T10:26:30.131Z,87885.00
2023-01-08T10:27:30.062Z,87881.00
2023-01-08T10:28:30.052Z,87875.00
2023-01-08T10:29:29.979Z,87877.00
2023-01-08T10:30:29.942Z,87879.00
2023-01-08T10:31:29.960Z,87874.00
2023-01-08T10:32:29.880Z,87883.00
2023-01-08T10:33:29.847Z,87881.00
2023-01-08T10:34:29.817Z,87879.00
2023-01-08T10:35:29.750Z,87881.00
2023-01-08T10:36:29.725Z,87877.00
2023-01-08T10:37:29.769Z,87883.00
2023-01-08T10:38:31.551Z,87874.00
2023-01-08T10:39:29.597Z,87862.00
2023-01-08T10:40:29.569Z,87862.00
2023-01-08T10:41:29.493Z,87866.00
2023-01-08T10:42:29.453Z,87862.00
2023-01-08T10:43:29.427Z,87870.00
2023-01-08T10:44:29.404Z,87864.00
2023-01-08T10:45:29.404Z,87864.00
2023-01-08T10:46:29.315Z,87864.00
2023-01-08T10:47:29.289Z,87864.00
2023-01-08T10:48:29.235Z,87872.00
2023-01-08T10:49:29.223Z,87870.00
2023-01-08T10:50:29.177Z,87864.00
2023-01-08T10:51:29.109Z,87872.00
2023-01-08T10:52:29.060Z,87870.00
2023-01-08T10:53:29.112Z,87870.00
2023-01-08T10:54:29.016Z,87868.00
2023-01-08T10:55:28.967Z,87860.00
2023-01-08T10:56:28.911Z,87858.00
2023-01-08T10:57:28.874Z,87848.00
2023-01-08T10:58:28.833Z,87846.00
2023-01-08T10:59:28.756Z,87852.00
2023-01-08T11:00:28.761Z,87856.00
2023-01-08T11:01:28.792Z,87862.00
2023-01-08T11:02:28.643Z,87854.00
2023-01-08T11:03:28.581Z,87854.00
2023-01-08T11:04:28.550Z,87856.00
2023-01-08T11:05:28.505Z,87852.00
2023-01-08T11:06:28.462Z,87848.00
2023-01-08T11:07:28.426Z,87844.00
2023-01-08T11:08:28.391Z,87846.00
2023-01-08T11:09:28.351Z,87846.00
2023-01-08T11:10:28.270Z,87844.00
2023-01-08T11:11:28.219Z,87844.00
2023-01-08T11:12:28.182Z,87850.00
2023-01-08T11:13:28.137Z,87852.00
2023-01-08T11:14:28.113Z,87834.00
2023-01-08T11:15:28.052Z,87828.00
2023-01-08T11:16:28.024Z,87832.00
2023-01-08T11:17:27.944Z,87820.00
2023-01-08T11:18:27.907Z,87822.00
2023-01-08T11:19:27.889Z,87826.00
2023-01-08T11:20:27.802Z,87824.00
2023-01-08T11:21:27.759Z,87826.00
2023-01-08T11:22:27.711Z,87824.00
2023-01-08T11:23:27.667Z,87813.00
2023-01-08T11:24:27.626Z,87819.00
2023-01-08T11:25:27.560Z,87820.00
2023-01-08T11:26:27.520Z,87820.00
2023-01-08T11:27:27.481Z,87820.00
2023-01-08T11:28:27.439Z,87820.00
2023-01-08T11:29:27.406Z,87817.00
2023-01-08T11:30:27.372Z,87815.00
2023-01-08T11:31:27.325Z,87819.00
2023-01-08T11:32:27.283Z,87824.00
2023-01-08T11:33:27.253Z,87822.00
2023-01-08T11:34:27.179Z,87819.00
2023-01-08T11:35:27.139Z,87813.00
2023-01-08T11:36:27.101Z,87809.00
2023-01-08T11:37:27.056Z,87807.00
2023-01-08T11:38:27.017Z,87799.00
2023-01-08T11:39:26.976Z,87793.00
2023-01-08T11:40:26.958Z,87789.00
2023-01-08T11:41:26.904Z,87791.00
2023-01-08T11:42:26.864Z,87793.00
2023-01-08T11:43:26.815Z,87791.00
2023-01-08T11:44:26.776Z,87793.00